Time;durP1;ratioP1;P1;durP2;ratioP2;P2;SDS_P1;SDS_P2;PMS_P1;PMS_P2;Temp;Humidity;BMP_temperature;BMP_pressure;BME280_temperature;BME280_humidity;BME280_pressure;Samples;Min_cycle;Max_cycle;Signal;HPM_P1;HPM_P2
2022/10/26 00:00:43;;;;;;;9.63;7.87;;;;;;;12.39;100.00;96744.28;5092183;28;20177;-55
2022/10/26 00:03:08;;;;;;;6.97;6.57;;;;;;;12.34;100.00;96744.19;5091363;28;20173;-57
2022/10/26 00:05:34;;;;;;;10.10;7.83;;;;;;;12.36;100.00;96745.56;5091846;28;20180;-52
2022/10/26 00:08:00;;;;;;;9.90;9.00;;;;;;;12.30;100.00;96749.16;5092297;28;20703;-53
2022/10/26 00:10:26;;;;;;;11.73;10.57;;;;;;;12.31;100.00;96753.38;5092323;28;20196;-55
2022/10/26 00:12:52;;;;;;;10.47;9.53;;;;;;;12.25;100.00;96749.06;5091801;28;20714;-53
2022/10/26 00:15:18;;;;;;;12.83;11.63;;;;;;;12.26;100.00;96750.63;5091744;28;20230;-51
2022/10/26 00:17:44;;;;;;;10.00;9.10;;;;;;;12.21;100.00;96742.66;5091465;28;20211;-54
2022/10/26 00:20:10;;;;;;;9.47;8.67;;;;;;;12.31;100.00;96748.13;5091879;28;20535;-54
2022/10/26 00:22:36;;;;;;;9.63;8.93;;;;;;;12.31;100.00;96748.13;5092216;28;20617;-52
2022/10/26 00:25:02;;;;;;;9.07;8.27;;;;;;;12.31;100.00;96742.88;5092425;28;20172;-54
2022/10/26 00:27:27;;;;;;;8.23;7.50;;;;;;;12.24;100.00;96746.66;5091550;28;20668;-51
2022/10/26 00:29:53;;;;;;;8.87;8.07;;;;;;;12.39;100.00;96750.34;5092136;28;20189;-52
2022/10/26 00:32:18;;;;;;;8.53;7.60;;;;;;;12.39;100.00;96741.66;5091738;28;20259;-55
2022/10/26 00:34:43;;;;;;;7.90;7.17;;;;;;;12.27;100.00;96746.97;5091400;28;20334;-54
2022/10/26 00:37:09;;;;;;;7.67;7.07;;;;;;;12.45;100.00;96738.06;5091797;28;20294;-50
2022/10/26 00:39:34;;;;;;;7.43;6.77;;;;;;;12.33;100.00;96739.97;5093219;28;20180;-50
2022/10/26 00:42:00;;;;;;;7.60;6.90;;;;;;;12.28;100.00;96743.31;5095511;28;20532;-50
2022/10/26 00:44:57;;;;;;;7.40;6.90;;;;;;;12.22;100.00;96741.63;5094236;28;20189;-52
2022/10/26 00:47:22;;;;;;;13.07;10.30;;;;;;;12.38;100.00;96742.69;5072876;28;20233;-52
2022/10/26 00:49:50;;;;;;;23.87;22.00;;;;;;;12.38;100.00;96754.00;5094867;28;20640;-50
2022/10/26 00:52:17;;;;;;;14.57;13.30;;;;;;;12.54;100.00;96749.00;5095312;28;20215;-51
2022/10/26 00:54:43;;;;;;;9.60;7.80;;;;;;;12.56;100.00;96752.97;5095289;28;20174;-51
2022/10/26 00:57:10;;;;;;;13.03;12.13;;;;;;;12.73;100.00;96745.88;5095192;28;20207;-51
2022/10/26 00:59:36;;;;;;;20.77;19.27;;;;;;;12.89;100.00;96750.31;5094678;28;20256;-53
2022/10/26 01:02:02;;;;;;;16.60;15.70;;;;;;;12.93;100.00;96746.16;5094933;28;20318;-57
2022/10/26 01:04:27;;;;;;;9.70;9.00;;;;;;;12.97;100.00;96745.69;5094680;28;20222;-54
2022/10/26 01:06:53;;;;;;;9.10;8.53;;;;;;;12.94;100.00;96752.22;5094886;28;20604;-56
2022/10/26 01:09:19;;;;;;;12.50;8.47;;;;;;;12.87;100.00;96747.09;5076939;28;20196;-57
2022/10/26 01:11:45;;;;;;;9.03;8.43;;;;;;;12.96;100.00;96744.09;5094724;28;20177;-57
2022/10/26 01:14:13;;;;;;;10.80;10.20;;;;;;;13.06;100.00;96745.00;5094551;28;20176;-56
2022/10/26 01:16:58;;;;;;;8.67;8.07;;;;;;;12.99;100.00;96743.59;5094606;28;20184;-53
2022/10/26 01:19:56;;;;;;;8.33;7.73;;;;;;;13.04;100.00;96741.81;5089871;28;20173;-52
2022/10/26 01:22:25;;;;;;;6.33;5.93;;;;;;;12.98;100.00;96739.38;5080347;28;20168;-51
2022/10/26 01:25:09;;;;;;;6.67;6.13;;;;;;;13.06;100.00;96726.59;5094561;28;20255;-50
2022/10/26 01:27:37;;;;;;;9.07;8.37;;;;;;;13.06;100.00;96731.06;5094079;28;20208;-50
2022/10/26 01:30:09;;;;;;;9.60;8.77;;;;;;;12.98;100.00;96720.97;5094512;28;20270;-51
2022/10/26 01:32:44;;;;;;;9.17;8.47;;;;;;;13.07;100.00;96719.50;5094691;28;20545;-55
2022/10/26 01:35:14;;;;;;;12.07;11.27;;;;;;;12.99;100.00;96718.06;5093821;28;20165;-53
2022/10/26 01:37:54;;;;;;;16.33;15.33;;;;;;;12.82;100.00;96718.09;5094012;28;20204;-54
2022/10/26 01:41:05;;;;;;;15.10;13.83;;;;;;;12.89;100.00;96707.41;5094168;28;20660;-52
2022/10/26 01:43:36;;;;;;;14.00;12.90;;;;;;;12.97;100.00;96712.28;5092648;28;20204;-53
2022/10/26 01:46:05;;;;;;;14.40;13.13;;;;;;;12.80;100.00;96709.69;5083426;28;20232;-53
2022/10/26 01:48:32;;;;;;;14.43;13.43;;;;;;;12.75;100.00;96709.63;5093769;28;20208;-55
2022/10/26 01:50:59;;;;;;;8.83;8.07;;;;;;;12.72;100.00;96710.09;5092695;28;20227;-54
2022/10/26 01:53:27;;;;;;;9.60;8.80;;;;;;;12.62;100.00;96707.31;5093956;28;20160;-57
2022/10/26 01:55:54;;;;;;;10.00;9.40;;;;;;;12.65;100.00;96714.69;5094102;28;20160;-56
2022/10/26 01:58:40;;;;;;;9.87;9.17;;;;;;;12.67;100.00;96714.47;5093475;28;20201;-55
2022/10/26 02:01:24;;;;;;;8.57;7.77;;;;;;;12.68;100.00;96716.88;5093534;28;20176;-53
2022/10/26 02:04:11;;;;;;;22.53;21.13;;;;;;;12.54;100.00;96720.09;5093736;28;20640;-52
2022/10/26 02:06:59;;;;;;;14.60;13.60;;;;;;;12.43;100.00;96717.28;5093874;28;20208;-51
2022/10/26 02:09:43;;;;;;;13.47;12.37;;;;;;;12.53;100.00;96700.06;5092745;28;21020;-55
2022/10/26 02:12:32;;;;;;;13.27;12.37;;;;;;;12.56;100.00;96692.50;5093700;28;20171;-55
2022/10/26 02:15:10;;;;;;;11.97;10.93;;;;;;;12.47;100.00;96692.13;5093238;28;20176;-55
2022/10/26 02:17:48;;;;;;;10.63;9.73;;;;;;;12.42;100.00;96686.00;5093500;28;20216;-57
2022/10/26 02:20:21;;;;;;;13.30;12.30;;;;;;;12.36;100.00;96682.50;5093628;28;20645;-57
2022/10/26 02:22:49;;;;;;;21.90;20.50;;;;;;;12.33;100.00;96696.09;5093156;28;20656;-53
2022/10/26 02:25:20;;;;;;;26.73;25.07;;;;;;;12.28;100.00;96697.84;5092798;28;20180;-55
2022/10/26 02:27:51;;;;;;;19.40;17.93;;;;;;;12.26;100.00;96705.97;5093429;28;20200;-57
2022/10/26 02:30:17;;;;;;;14.73;13.57;;;;;;;12.31;100.00;96702.63;5093459;28;20598;-56
2022/10/26 02:32:49;;;;;;;13.13;12.27;;;;;;;12.25;100.00;96704.38;5093042;28;20164;-53
2022/10/26 02:35:19;;;;;;;19.43;18.17;;;;;;;12.39;100.00;96704.84;5093251;28;20169;-54
2022/10/26 02:37:47;;;;;;;19.57;18.27;;;;;;;12.31;100.00;96705.28;5093136;28;20216;-53
2022/10/26 02:40:17;;;;;;;17.87;16.73;;;;;;;12.22;100.00;96718.00;5093118;28;20259;-53
2022/10/26 02:42:45;;;;;;;17.30;15.93;;;;;;;12.22;100.00;96717.19;5092982;28;20181;-57
2022/10/26 02:45:17;;;;;;;17.80;15.90;;;;;;;12.29;100.00;96721.28;5090449;28;20181;-53
2022/10/26 02:47:42;;;;;;;17.37;16.20;;;;;;;12.37;100.00;96715.59;5088724;28;20231;-53
2022/10/26 02:50:08;;;;;;;18.53;17.17;;;;;;;12.41;100.00;96710.69;5092610;28;20200;-56
2022/10/26 02:52:48;;;;;;;19.00;17.63;;;;;;;12.32;100.00;96715.53;5092921;28;20196;-52
2022/10/26 02:55:21;;;;;;;19.03;17.53;;;;;;;12.31;100.00;96710.53;5074447;28;20173;-55
2022/10/26 02:57:52;;;;;;;17.17;15.77;;;;;;;12.29;100.00;96717.84;5092202;28;20283;-53
2022/10/26 03:00:18;;;;;;;13.37;12.43;;;;;;;12.22;100.00;96730.34;5092858;28;20169;-52
2022/10/26 03:02:50;;;;;;;14.77;13.57;;;;;;;12.25;100.00;96722.78;5092199;28;20574;-52
2022/10/26 03:05:20;;;;;;;17.90;16.57;;;;;;;12.28;100.00;96721.50;5092539;28;20222;-51
2022/10/26 03:07:45;;;;;;;20.17;18.57;;;;;;;12.17;100.00;96725.00;5092767;28;20200;-53
2022/10/26 03:10:11;;;;;;;21.83;20.13;;;;;;;12.12;100.00;96723.09;5092701;28;20687;-51
2022/10/26 03:12:36;;;;;;;19.63;17.97;;;;;;;12.23;100.00;96734.56;5092620;28;20176;-56
2022/10/26 03:15:03;;;;;;;16.67;15.50;;;;;;;12.30;100.00;96727.31;5092396;28;20169;-51
2022/10/26 03:17:28;;;;;;;14.20;13.23;;;;;;;12.25;100.00;96737.75;5092443;28;20200;-56
2022/10/26 03:19:55;;;;;;;16.30;15.10;;;;;;;12.36;100.00;96742.16;5092204;28;20177;-55
2022/10/26 03:22:21;;;;;;;15.13;14.20;;;;;;;12.38;100.00;96740.06;5092492;28;20202;-52
2022/10/26 03:24:47;;;;;;;12.43;11.47;;;;;;;12.41;100.00;96752.72;5092844;28;20173;-53
2022/10/26 03:27:13;;;;;;;12.10;11.20;;;;;;;12.46;100.00;96756.25;5092340;28;20249;-57
2022/10/26 03:29:39;;;;;;;26.63;25.20;;;;;;;12.48;100.00;96762.03;5092378;28;20199;-56
2022/10/26 03:32:05;;;;;;;37.07;34.73;;;;;;;12.60;100.00;96758.53;5092405;28;20259;-57
2022/10/26 03:34:30;;;;;;;39.67;37.37;;;;;;;12.58;100.00;96761.41;5092255;28;20209;-58
2022/10/26 03:36:56;;;;;;;32.63;30.73;;;;;;;12.64;100.00;96770.19;5092465;28;20224;-55
2022/10/26 03:39:21;;;;;;;31.10;29.30;;;;;;;12.64;100.00;96783.34;5092919;28;20172;-53
2022/10/26 03:41:47;;;;;;;31.80;29.70;;;;;;;12.66;100.00;96782.03;5092549;28;20218;-55
2022/10/26 03:44:12;;;;;;;25.23;23.57;;;;;;;12.65;100.00;96777.81;5091521;28;20191;-58
2022/10/26 03:46:38;;;;;;;16.03;14.40;;;;;;;12.63;100.00;96774.66;5089681;28;20239;-58
2022/10/26 03:49:03;;;;;;;16.17;14.77;;;;;;;12.67;100.00;96761.81;5091807;28;20669;-58
2022/10/26 03:51:29;;;;;;;15.30;14.23;;;;;;;12.71;100.00;96768.97;5092208;28;20218;-56
2022/10/26 03:53:54;;;;;;;15.03;13.83;;;;;;;12.75;100.00;96766.69;5092284;28;20188;-54
2022/10/26 03:56:19;;;;;;;18.43;17.33;;;;;;;12.77;100.00;96778.53;5092337;28;20177;-51
2022/10/26 03:58:45;;;;;;;28.17;26.47;;;;;;;12.78;100.00;96771.44;5092140;28;20245;-51
2022/10/26 04:01:10;;;;;;;35.30;32.97;;;;;;;12.82;100.00;96762.81;5092066;28;20636;-55
2022/10/26 04:03:36;;;;;;;30.83;28.97;;;;;;;12.87;100.00;96760.25;5092000;28;20165;-52
2022/10/26 04:06:02;;;;;;;14.13;12.77;;;;;;;12.93;100.00;96759.31;5091960;28;20530;-56
2022/10/26 04:08:27;;;;;;;11.37;10.60;;;;;;;12.97;100.00;96753.56;5092379;28;20763;-54
2022/10/26 04:10:53;;;;;;;16.27;15.30;;;;;;;12.92;100.00;96741.16;5092123;28;20276;-56
2022/10/26 04:13:19;;;;;;;28.57;26.77;;;;;;;12.86;100.00;96734.22;5092277;28;20543;-53
2022/10/26 04:15:44;;;;;;;19.53;18.43;;;;;;;12.90;100.00;96732.69;5095413;28;20179;-57
2022/10/26 04:18:13;;;;;;;20.30;18.93;;;;;;;12.87;100.00;96720.81;5095498;28;20232;-57
2022/10/26 04:20:42;;;;;;;20.40;19.27;;;;;;;12.88;100.00;96717.16;5095921;28;20168;-54
2022/10/26 04:23:13;;;;;;;12.67;11.67;;;;;;;12.97;100.00;96727.25;5095979;28;20204;-54
2022/10/26 04:25:39;;;;;;;11.00;9.97;;;;;;;12.95;100.00;96750.38;5095470;28;20541;-54
2022/10/26 04:28:06;;;;;;;9.17;8.13;;;;;;;12.95;100.00;96753.81;5095384;28;20671;-56
2022/10/26 04:30:33;;;;;;;10.83;10.13;;;;;;;12.89;100.00;96752.13;5095483;28;20228;-57
2022/10/26 04:32:58;;;;;;;16.13;14.83;;;;;;;12.83;100.00;96743.38;5095497;28;20208;-53
2022/10/26 04:35:24;;;;;;;13.13;12.23;;;;;;;12.85;100.00;96743.16;5095885;28;20686;-51
2022/10/26 04:37:49;;;;;;;23.23;21.53;;;;;;;12.77;100.00;96744.34;5095291;28;20200;-56
2022/10/26 04:40:15;;;;;;;33.60;31.27;;;;;;;12.72;100.00;96765.31;5077148;28;20641;-56
2022/10/26 04:42:42;;;;;;;32.57;30.67;;;;;;;12.53;100.00;96748.19;5094474;28;20180;-55
2022/10/26 04:45:08;;;;;;;28.23;26.33;;;;;;;12.35;100.00;96743.16;5095199;28;20185;-58
2022/10/26 04:47:33;;;;;;;20.33;18.90;;;;;;;12.33;100.00;96732.09;5092820;28;20284;-58
2022/10/26 04:49:59;;;;;;;13.03;12.13;;;;;;;12.29;100.00;96730.97;5095502;28;20211;-55
2022/10/26 04:52:24;;;;;;;13.70;12.50;;;;;;;12.25;100.00;96732.50;5084124;28;20180;-55
2022/10/26 04:54:49;;;;;;;9.27;8.57;;;;;;;12.28;100.00;96729.38;5094804;28;20544;-55
2022/10/26 04:57:15;;;;;;;10.10;9.33;;;;;;;12.49;100.00;96726.84;5095338;28;20209;-55
2022/10/26 04:59:40;;;;;;;9.43;8.73;;;;;;;12.59;100.00;96733.31;5094382;28;20180;-53
2022/10/26 05:02:05;;;;;;;10.43;9.37;;;;;;;12.65;100.00;96722.59;5094869;28;20544;-52
2022/10/26 05:04:31;;;;;;;9.67;7.67;;;;;;;12.76;100.00;96736.72;5094536;28;20207;-53
2022/10/26 05:06:56;;;;;;;9.07;8.47;;;;;;;12.78;100.00;96739.88;5094515;28;20200;-54
2022/10/26 05:09:22;;;;;;;8.50;7.70;;;;;;;12.82;100.00;96736.53;5094527;28;20196;-57
2022/10/26 05:11:47;;;;;;;9.50;8.93;;;;;;;12.74;100.00;96750.09;5094590;28;20313;-52
2022/10/26 05:14:12;;;;;;;10.03;9.27;;;;;;;12.73;100.00;96745.88;5094572;28;20699;-58
2022/10/26 05:16:38;;;;;;;11.20;10.33;;;;;;;12.65;100.00;96740.22;5093715;28;20185;-53
2022/10/26 05:19:03;;;;;;;13.00;11.97;;;;;;;12.69;100.00;96744.75;5094133;28;20169;-55
2022/10/26 05:21:29;;;;;;;11.47;10.27;;;;;;;12.71;100.00;96747.94;5094556;28;20217;-55
2022/10/26 05:23:55;;;;;;;12.20;11.27;;;;;;;12.66;100.00;96753.13;5094188;28;20185;-52
2022/10/26 05:26:23;;;;;;;12.17;11.20;;;;;;;12.73;100.00;96750.31;5094074;28;20173;-55
2022/10/26 05:28:50;;;;;;;11.63;10.83;;;;;;;12.72;100.00;96759.25;5094246;28;20225;-55
2022/10/26 05:31:15;;;;;;;13.23;12.07;;;;;;;12.77;100.00;96762.75;5094383;28;20203;-58
2022/10/26 05:33:42;;;;;;;12.00;11.20;;;;;;;12.85;100.00;96761.56;5094083;28;20236;-58
2022/10/26 05:36:07;;;;;;;11.97;11.23;;;;;;;12.85;100.00;96765.00;5094205;28;20661;-58
2022/10/26 05:38:33;;;;;;;13.53;12.53;;;;;;;12.84;100.00;96762.59;5094050;28;20223;-56
2022/10/26 05:41:00;;;;;;;17.80;16.60;;;;;;;12.90;100.00;96766.88;5094085;28;20192;-57
2022/10/26 05:43:26;;;;;;;19.30;17.43;;;;;;;12.91;100.00;96766.66;5093438;28;20215;-57
2022/10/26 05:45:52;;;;;;;14.53;13.53;;;;;;;12.98;100.00;96773.59;5091597;28;20177;-58
2022/10/26 05:48:17;;;;;;;11.43;10.50;;;;;;;13.03;100.00;96776.28;5093842;28;20209;-57
2022/10/26 05:50:43;;;;;;;8.43;5.50;;;;;;;13.04;100.00;96775.25;5093662;28;20212;-58
2022/10/26 05:53:09;;;;;;;6.80;6.30;;;;;;;13.10;100.00;96771.63;5093875;28;20176;-54
2022/10/26 05:55:35;;;;;;;10.97;10.07;;;;;;;13.08;100.00;96776.34;5075468;28;20188;-54
2022/10/26 05:58:00;;;;;;;12.97;11.63;;;;;;;13.09;100.00;96777.94;5075489;28;20684;-52
2022/10/26 06:00:28;;;;;;;8.77;8.07;;;;;;;13.07;100.00;96790.53;5075809;28;20196;-56
2022/10/26 06:03:11;;;;;;;9.60;9.00;;;;;;;13.19;100.00;96788.66;5093646;28;20534;-56
2022/10/26 06:05:53;;;;;;;12.13;11.30;;;;;;;13.24;100.00;96794.78;5092572;28;20222;-58
2022/10/26 06:08:20;;;;;;;17.03;15.90;;;;;;;13.25;100.00;96798.22;5083660;28;20641;-57
2022/10/26 06:10:47;;;;;;;40.50;38.00;;;;;;;13.23;100.00;96808.16;5093758;28;20196;-56
2022/10/26 06:13:12;;;;;;;54.63;51.23;;;;;;;13.32;100.00;96811.97;5094453;28;20173;-60
2022/10/26 06:15:56;;;;;;;26.83;25.30;;;;;;;13.34;100.00;96812.53;5093264;28;20659;-58
2022/10/26 06:18:24;;;;;;;24.30;22.70;;;;;;;13.42;100.00;96813.97;5093344;28;20305;-64
2022/10/26 06:21:04;;;;;;;23.87;22.33;;;;;;;13.31;100.00;96821.72;5093700;28;20177;-55
2022/10/26 06:23:36;;;;;;;40.33;37.77;;;;;;;13.44;100.00;96822.41;5093357;28;20176;-57
2022/10/26 06:26:19;;;;;;;22.07;20.67;;;;;;;13.43;100.00;96831.34;5092661;28;20179;-57
2022/10/26 06:29:03;;;;;;;42.70;40.27;;;;;;;13.41;100.00;96836.06;5092953;28;20215;-57
2022/10/26 06:31:29;;;;;;;40.17;37.93;;;;;;;13.37;100.00;96841.03;5093158;28;20196;-55
2022/10/26 06:33:58;;;;;;;24.93;23.47;;;;;;;13.43;100.00;96847.94;5092758;28;20266;-57
2022/10/26 06:36:26;;;;;;;18.57;17.13;;;;;;;13.43;100.00;96850.56;5092531;28;20177;-56
2022/10/26 06:39:06;;;;;;;22.57;21.23;;;;;;;13.35;100.00;96847.56;5092370;28;20187;-58
2022/10/26 06:41:34;;;;;;;28.10;26.50;;;;;;;13.42;100.00;96849.00;5093106;28;20738;-55
2022/10/26 06:44:01;;;;;;;38.43;36.20;;;;;;;13.42;100.00;96856.88;5091830;28;20193;-58
2022/10/26 06:46:38;;;;;;;24.43;22.70;;;;;;;13.47;100.00;96854.31;5090198;28;20228;-56
2022/10/26 06:49:12;;;;;;;23.73;22.03;;;;;;;13.49;100.00;96857.50;5092829;28;20251;-57
2022/10/26 06:51:46;;;;;;;30.83;29.03;;;;;;;13.58;100.00;96857.88;5092851;28;20275;-57
2022/10/26 06:54:29;;;;;;;31.50;29.50;;;;;;;13.53;100.00;96858.63;5092712;28;20176;-57
2022/10/26 06:56:55;;;;;;;32.93;30.83;;;;;;;13.59;100.00;96860.28;5092326;28;20736;-57
2022/10/26 06:59:36;;;;;;;27.33;25.77;;;;;;;13.59;100.00;96868.19;5092787;28;20303;-58
2022/10/26 07:02:01;;;;;;;27.70;26.10;;;;;;;13.65;100.00;96869.81;5092930;28;20184;-56
2022/10/26 07:04:27;;;;;;;20.10;18.50;;;;;;;13.70;100.00;96872.53;5092500;28;20229;-56
2022/10/26 07:06:54;;;;;;;13.27;12.43;;;;;;;13.70;100.00;96883.09;5092266;28;20304;-55
2022/10/26 07:09:20;;;;;;;30.30;28.57;;;;;;;13.72;100.00;96874.91;5092759;28;20211;-55
2022/10/26 07:11:45;;;;;;;38.53;36.13;;;;;;;13.71;100.00;96884.66;5090633;28;20168;-57
2022/10/26 07:14:10;;;;;;;42.77;40.33;;;;;;;13.81;100.00;96880.56;5091215;28;20177;-55
2022/10/26 07:16:36;;;;;;;59.60;56.20;;;;;;;13.75;100.00;96877.06;5088399;28;20198;-57
2022/10/26 07:19:01;;;;;;;48.10;45.33;;;;;;;13.78;100.00;96879.22;5084054;28;20177;-57
2022/10/26 07:21:27;;;;;;;57.90;54.33;;;;;;;13.91;100.00;96888.59;5082909;28;20169;-58
2022/10/26 07:23:55;;;;;;;15.77;14.47;;;;;;;13.95;100.00;96892.34;5090026;28;20243;-56
2022/10/26 07:26:21;;;;;;;12.13;11.30;;;;;;;13.99;100.00;96898.69;5092354;28;20183;-58
2022/10/26 07:28:48;;;;;;;15.90;14.90;;;;;;;14.07;100.00;96899.09;5091851;28;20654;-57
2022/10/26 07:31:14;;;;;;;13.07;11.93;;;;;;;14.11;100.00;96909.91;5092480;28;20171;-57
2022/10/26 07:33:40;;;;;;;10.97;10.17;;;;;;;14.18;100.00;96907.09;5092074;28;20216;-55
2022/10/26 07:36:07;;;;;;;14.20;13.20;;;;;;;14.20;100.00;96910.31;5092478;28;20184;-57
2022/10/26 07:38:33;;;;;;;19.90;18.20;;;;;;;14.29;100.00;96916.72;5092103;28;20253;-56
2022/10/26 07:40:58;;;;;;;15.30;14.00;;;;;;;14.33;100.00;96912.53;5092122;28;20173;-57
2022/10/26 07:43:23;;;;;;;14.77;13.57;;;;;;;14.38;100.00;96923.97;5091172;28;20188;-57
2022/10/26 07:45:50;;;;;;;14.43;13.63;;;;;;;14.38;100.00;96926.63;5071345;28;20193;-55
2022/10/26 07:48:15;;;;;;;14.53;13.50;;;;;;;14.44;100.00;96925.63;5093035;28;20298;-57
2022/10/26 07:50:40;;;;;;;13.90;12.80;;;;;;;14.55;100.00;96929.97;5096312;28;20327;-55
2022/10/26 07:53:06;;;;;;;9.80;9.10;;;;;;;14.57;100.00;96940.28;5095927;28;20165;-57
2022/10/26 07:55:32;;;;;;;9.93;9.23;;;;;;;14.53;100.00;96940.00;5095283;28;20241;-57
2022/10/26 07:57:57;;;;;;;7.30;6.80;;;;;;;14.63;100.00;96938.50;5095389;28;20204;-56
2022/10/26 08:00:22;;;;;;;13.80;12.50;;;;;;;14.60;100.00;96934.50;5096078;28;20676;-57
2022/10/26 08:02:48;;;;;;;11.60;10.77;;;;;;;14.79;100.00;96945.50;5096145;28;20701;-56
2022/10/26 08:05:13;;;;;;;11.20;10.17;;;;;;;14.86;100.00;96946.13;5095452;28;20168;-57
2022/10/26 08:07:43;;;;;;;6.30;5.57;;;;;;;14.91;100.00;96939.06;5095771;28;20204;-58
2022/10/26 08:10:09;;;;;;;5.00;4.70;;;;;;;14.94;100.00;96938.53;5095156;28;20188;-56
2022/10/26 08:12:35;;;;;;;5.63;5.17;;;;;;;15.02;100.00;96939.94;5095135;28;20637;-57
2022/10/26 08:15:01;;;;;;;6.97;6.50;;;;;;;15.07;100.00;96939.19;5095781;28;20172;-55
2022/10/26 08:17:28;;;;;;;6.23;5.73;;;;;;;15.11;100.00;96940.25;5095348;28;20282;-56
2022/10/26 08:19:53;;;;;;;8.47;7.67;;;;;;;15.21;100.00;96943.78;5095563;28;20176;-54
2022/10/26 08:22:18;;;;;;;9.53;8.73;;;;;;;15.23;100.00;96935.63;5095251;28;20188;-56
2022/10/26 08:24:45;;;;;;;8.23;7.57;;;;;;;15.32;100.00;96936.75;5094974;28;20229;-57
2022/10/26 08:27:12;;;;;;;8.20;7.70;;;;;;;15.06;100.00;96938.38;5089083;28;20204;-58
2022/10/26 08:29:38;;;;;;;7.80;7.20;;;;;;;15.23;100.00;96941.69;5095234;28;20210;-54
2022/10/26 08:32:03;;;;;;;7.77;7.17;;;;;;;15.24;100.00;96943.28;5095218;28;20173;-57
2022/10/26 08:34:29;;;;;;;6.83;6.13;;;;;;;15.21;100.00;96945.66;5095199;28;20188;-57
2022/10/26 08:36:54;;;;;;;7.50;5.53;;;;;;;15.27;100.00;96949.91;5095123;28;20200;-56
2022/10/26 08:39:20;;;;;;;5.33;4.90;;;;;;;15.29;100.00;96945.19;5094564;28;20314;-56
2022/10/26 08:41:51;;;;;;;5.27;4.67;;;;;;;15.37;100.00;96942.88;5094847;28;20188;-57
2022/10/26 08:44:20;;;;;;;7.93;4.50;;;;;;;15.46;100.00;96945.03;5094920;28;20176;-57
2022/10/26 08:46:52;;;;;;;5.63;5.23;;;;;;;15.45;100.00;96954.81;5092153;28;20358;-58
2022/10/26 08:49:31;;;;;;;6.77;4.90;;;;;;;15.24;100.00;96958.34;5094912;28;20295;-56
2022/10/26 08:52:00;;;;;;;6.60;5.77;;;;;;;15.36;100.00;96965.06;5094463;28;20586;-58
2022/10/26 08:54:38;;;;;;;4.67;4.27;;;;;;;15.21;100.00;96962.25;5094177;28;20183;-57
2022/10/26 08:57:25;;;;;;;7.00;4.87;;;;;;;15.34;100.00;96969.78;5093808;28;20668;-58
2022/10/26 09:00:11;;;;;;;6.07;5.47;;;;;;;15.44;100.00;96968.25;5094120;28;20222;-57
2022/10/26 09:02:37;;;;;;;5.10;4.70;;;;;;;15.52;100.00;96970.47;5078799;28;20497;-57
2022/10/26 09:05:04;;;;;;;7.40;4.73;;;;;;;15.44;100.00;96971.69;5094509;28;20712;-58
2022/10/26 09:07:47;;;;;;;5.73;4.90;;;;;;;15.65;100.00;96972.69;5094316;28;20572;-55
2022/10/26 09:10:28;;;;;;;6.60;5.07;;;;;;;15.66;100.00;96971.66;5094514;28;20200;-53
2022/10/26 09:13:07;;;;;;;7.63;5.67;;;;;;;15.80;100.00;96981.53;5094396;28;20183;-57
2022/10/26 09:15:38;;;;;;;9.87;9.27;;;;;;;15.99;100.00;96983.75;5094027;28;20203;-55
2022/10/26 09:18:23;;;;;;;8.13;7.43;;;;;;;16.13;100.00;96987.53;5094387;28;20212;-56
2022/10/26 09:21:01;;;;;;;7.43;6.68;;;;;;;16.33;100.00;96982.31;5094537;28;20169;-56
2022/10/26 09:23:35;;;;;;;24.20;22.40;;;;;;;16.51;100.00;96995.09;5094195;28;20197;-53
2022/10/26 09:26:02;;;;;;;22.70;21.20;;;;;;;16.54;100.00;96989.31;5087960;28;20190;-57
2022/10/26 09:28:34;;;;;;;12.65;11.25;;;;;;;16.62;100.00;96999.41;5094210;28;20205;-57
2022/10/26 09:31:01;;;;;;;9.07;8.40;;;;;;;16.52;100.00;96987.97;5093853;28;20665;-54
2022/10/26 09:33:30;;;;;;;8.65;7.95;;;;;;;16.46;100.00;97007.53;5094312;28;20249;-58
2022/10/26 09:36:08;;;;;;;6.70;6.18;;;;;;;16.58;100.00;97008.09;5094138;28;20631;-59
2022/10/26 09:38:43;;;;;;;9.63;8.82;;;;;;;16.72;100.00;97008.47;5092315;28;20261;-59
2022/10/26 09:41:26;;;;;;;14.60;13.73;;;;;;;16.80;100.00;97011.38;5087007;28;20601;-56
2022/10/26 09:44:14;;;;;;;23.80;15.65;;;;;;;16.89;100.00;97012.47;5090549;28;20237;-59
2022/10/26 09:46:47;;;;;;;12.40;11.60;;;;;;;16.88;100.00;97021.50;5085044;28;20232;-58
2022/10/26 09:49:16;;;;;;;20.13;18.55;;;;;;;17.01;100.00;97018.31;5074533;28;21085;-56
2022/10/26 09:51:43;;;;;;;17.52;16.40;;;;;;;17.10;100.00;97018.63;5094009;28;20260;-59
2022/10/26 09:54:15;;;;;;;9.95;9.02;;;;;;;17.16;100.00;97024.72;5093585;28;20633;-58
2022/10/26 09:56:44;;;;;;;17.38;7.72;;;;;;;17.11;100.00;97024.72;5092875;28;20176;-59
2022/10/26 09:59:10;;;;;;;10.85;9.82;;;;;;;17.20;99.49;97026.59;5093857;28;20175;-57
2022/10/26 10:01:36;;;;;;;14.75;13.65;;;;;;;17.27;98.56;97021.84;5093689;28;20625;-59
2022/10/26 10:04:30;;;;;;;14.20;13.02;;;;;;;17.55;97.31;97033.78;5093387;28;20592;-58
2022/10/26 10:07:16;;;;;;;14.43;13.38;;;;;;;17.86;96.37;97030.09;5080023;28;20212;-55
2022/10/26 10:09:42;;;;;;;16.42;14.93;;;;;;;17.96;96.02;97023.97;5093328;28;20254;-57
2022/10/26 10:12:20;;;;;;;18.83;17.35;;;;;;;17.93;96.03;97036.97;5091327;28;20176;-59
2022/10/26 10:14:57;;;;;;;19.25;17.88;;;;;;;17.99;94.29;97036.72;5092145;28;20181;-56
2022/10/26 10:17:23;;;;;;;16.33;15.02;;;;;;;18.19;94.32;97043.84;5092420;28;20196;-58
2022/10/26 10:19:50;;;;;;;21.58;20.13;;;;;;;18.32;93.41;97039.84;5092421;28;20165;-59
2022/10/26 10:22:17;;;;;;;28.92;26.88;;;;;;;18.31;93.87;97044.34;5093278;28;20184;-59
2022/10/26 10:24:54;;;;;;;25.60;23.95;;;;;;;18.27;93.91;97041.44;5091780;28;20656;-56
2022/10/26 10:27:19;;;;;;;17.27;16.20;;;;;;;18.14;95.43;97054.47;5092490;28;20286;-55
2022/10/26 10:29:48;;;;;;;12.23;11.48;;;;;;;18.31;94.70;97054.97;5093154;28;20275;-56
2022/10/26 10:32:15;;;;;;;18.85;17.48;;;;;;;18.35;91.00;97040.06;5093700;28;20260;-56
2022/10/26 10:34:41;;;;;;;32.90;29.65;;;;;;;18.59;97.61;97056.25;5093603;28;20271;-65
2022/10/26 10:37:32;;;;;;;27.60;25.52;;;;;;;18.84;91.35;97058.00;5092500;28;20283;-62
2022/10/26 10:40:00;;;;;;;34.00;31.90;;;;;;;19.12;87.84;97059.97;5093085;28;20270;-62
2022/10/26 10:42:33;;;;;;;18.00;16.65;;;;;;;19.16;85.05;97058.38;5092121;28;20645;-57
2022/10/26 10:45:00;;;;;;;12.70;11.40;;;;;;;19.27;85.42;97067.09;5092368;28;20184;-58
2022/10/26 10:47:34;;;;;;;22.10;20.38;;;;;;;19.28;83.83;97058.06;5089719;28;20603;-58
2022/10/26 10:50:03;;;;;;;21.75;20.27;;;;;;;19.21;84.10;97058.34;5092297;28;20703;-54
2022/10/26 10:52:32;;;;;;;31.48;29.50;;;;;;;18.99;85.64;97063.25;5091998;28;20213;-57
2022/10/26 10:55:21;;;;;;;27.42;25.63;;;;;;;19.00;83.93;97062.97;5073514;28;20256;-57
2022/10/26 10:57:46;;;;;;;42.58;39.78;;;;;;;19.13;84.55;97066.88;5092329;28;20193;-55
2022/10/26 11:00:12;;;;;;;59.50;56.00;;;;;;;19.26;84.47;97070.81;5091822;28;20187;-55
2022/10/26 11:03:08;;;;;;;32.25;30.35;;;;;;;19.27;83.26;97065.25;5091652;28;20259;-56
2022/10/26 11:05:40;;;;;;;29.88;27.75;;;;;;;19.62;82.88;97071.41;5076996;28;20176;-54
2022/10/26 11:08:34;;;;;;;25.92;24.42;;;;;;;19.72;81.09;97072.16;5075632;28;20201;-51
2022/10/26 11:11:06;;;;;;;17.60;16.40;;;;;;;19.74;81.97;97080.63;5075491;28;20211;-50
2022/10/26 11:13:40;;;;;;;51.80;48.63;;;;;;;19.85;80.70;97071.50;5074249;28;20215;-53
2022/10/26 11:16:18;;;;;;;63.15;59.38;;;;;;;19.84;81.44;97080.53;5092439;28;20595;-50
2022/10/26 11:18:55;;;;;;;171.45;161.82;;;;;;;19.98;80.00;97071.94;5091992;28;20196;-53
2022/10/26 11:21:32;;;;;;;40.58;38.00;;;;;;;19.82;78.65;97076.59;5093086;28;20207;-61
2022/10/26 11:24:09;;;;;;;97.97;92.57;;;;;;;19.78;80.38;97070.25;5091479;28;20169;-56
2022/10/26 11:26:44;;;;;;;90.32;85.20;;;;;;;19.75;80.69;97071.56;5091862;28;20250;-54